sensor_id;sensor_type;location;lat;lon;timestamp;pressure;altitude;pressure_sealevel;temperature;humidity
73171;BME280;61381;50.118;19.962;2024-02-21T00:01:41;99113.56;;;11.53;62.83
73171;BME280;61381;50.118;19.962;2024-02-21T00:06:43;99119.91;;;10.92;64.99
73171;BME280;61381;50.118;19.962;2024-02-21T00:11:44;99115.09;;;10.94;64.70
73171;BME280;61381;50.118;19.962;2024-02-21T00:16:45;99112.31;;;11.30;63.86
73171;BME280;61381;50.118;19.962;2024-02-21T00:21:47;99108.16;;;10.62;65.89
73171;BME280;61381;50.118;19.962;2024-02-21T00:26:48;99114.88;;;10.39;67.25
73171;BME280;61381;50.118;19.962;2024-02-21T00:31:48;99109.22;;;10.81;67.53
73171;BME280;61381;50.118;19.962;2024-02-21T00:36:51;99106.28;;;10.57;67.78
73171;BME280;61381;50.118;19.962;2024-02-21T00:41:52;99093.69;;;10.68;69.59
73171;BME280;61381;50.118;19.962;2024-02-21T00:46:52;99099.06;;;10.58;69.87
73171;BME280;61381;50.118;19.962;2024-02-21T00:51:54;99091.25;;;10.87;70.59
73171;BME280;61381;50.118;19.962;2024-02-21T00:56:55;99084.03;;;10.15;72.61
73171;BME280;61381;50.118;19.962;2024-02-21T01:01:56;99078.66;;;10.82;71.43
73171;BME280;61381;50.118;19.962;2024-02-21T01:06:58;99081.38;;;10.46;73.09
73171;BME280;61381;50.118;19.962;2024-02-21T01:11:59;99078.66;;;10.82;71.50
73171;BME280;61381;50.118;19.962;2024-02-21T01:17:00;99072.78;;;10.18;73.55
73171;BME280;61381;50.118;19.962;2024-02-21T01:22:02;99075.75;;;10.43;75.01
73171;BME280;61381;50.118;19.962;2024-02-21T01:27:03;99070.09;;;10.80;72.83
73171;BME280;61381;50.118;19.962;2024-02-21T01:32:05;99064.41;;;10.97;71.17
73171;BME280;61381;50.118;19.962;2024-02-21T01:37:07;99060.72;;;11.53;69.68
73171;BME280;61381;50.118;19.962;2024-02-21T01:42:08;99046.44;;;11.08;70.29
73171;BME280;61381;50.118;19.962;2024-02-21T01:47:10;99041.44;;;10.76;72.00
73171;BME280;61381;50.118;19.962;2024-02-21T01:52:14;99039.03;;;10.69;72.70
73171;BME280;61381;50.118;19.962;2024-02-21T01:57:16;99042.53;;;10.13;74.45
73171;BME280;61381;50.118;19.962;2024-02-21T02:02:16;99045.50;;;10.37;74.26
73171;BME280;61381;50.118;19.962;2024-02-21T02:07:19;99032.63;;;10.49;74.64
73171;BME280;61381;50.118;19.962;2024-02-21T02:12:20;99032.34;;;10.05;76.23
73171;BME280;61381;50.118;19.962;2024-02-21T02:17:21;99031.00;;;10.07;77.92
73171;BME280;61381;50.118;19.962;2024-02-21T02:22:28;99030.72;;;9.93;79.12
73171;BME280;61381;50.118;19.962;2024-02-21T02:27:30;99032.09;;;10.11;78.89
73171;BME280;61381;50.118;19.962;2024-02-21T02:32:31;99022.91;;;9.61;80.78
73171;BME280;61381;50.118;19.962;2024-02-21T02:37:32;99022.16;;;9.86;80.06
73171;BME280;61381;50.118;19.962;2024-02-21T02:42:34;99014.91;;;9.66;81.55
73171;BME280;61381;50.118;19.962;2024-02-21T02:47:35;99018.22;;;9.10;84.16
73171;BME280;61381;50.118;19.962;2024-02-21T02:52:35;99025.38;;;9.88;80.28
73171;BME280;61381;50.118;19.962;2024-02-21T02:57:38;99026.72;;;10.27;79.36
73171;BME280;61381;50.118;19.962;2024-02-21T03:02:42;99012.81;;;10.40;78.02
73171;BME280;61381;50.118;19.962;2024-02-21T03:07:43;99015.19;;;10.62;76.19
73171;BME280;61381;50.118;19.962;2024-02-21T03:12:45;99007.88;;;10.94;74.58
73171;BME280;61381;50.118;19.962;2024-02-21T03:17:46;98999.38;;;10.71;74.94
73171;BME280;61381;50.118;19.962;2024-02-21T03:22:47;99003.06;;;10.91;74.66
73171;BME280;61381;50.118;19.962;2024-02-21T03:27:49;99006.28;;;10.82;74.21
73171;BME280;61381;50.118;19.962;2024-02-21T03:32:50;99012.50;;;10.73;75.10
73171;BME280;61381;50.118;19.962;2024-02-21T03:37:51;98992.19;;;10.25;76.95
73171;BME280;61381;50.118;19.962;2024-02-21T03:42:53;98990.84;;;10.23;78.28
73171;BME280;61381;50.118;19.962;2024-02-21T03:47:54;98996.75;;;10.09;77.90
73171;BME280;61381;50.118;19.962;2024-02-21T03:52:55;98998.34;;;10.21;77.68
73171;BME280;61381;50.118;19.962;2024-02-21T03:57:57;98994.13;;;11.11;73.83
73171;BME280;61381;50.118;19.962;2024-02-21T04:02:58;98998.31;;;10.72;74.38
73171;BME280;61381;50.118;19.962;2024-02-21T04:07:59;98977.47;;;10.43;76.84
73171;BME280;61381;50.118;19.962;2024-02-21T04:13:01;98994.06;;;10.14;78.63
73171;BME280;61381;50.118;19.962;2024-02-21T04:18:02;98983.09;;;9.95;78.31
73171;BME280;61381;50.118;19.962;2024-02-21T04:23:02;98978.53;;;10.27;77.18
73171;BME280;61381;50.118;19.962;2024-02-21T04:28:05;98967.28;;;9.63;79.60
73171;BME280;61381;50.118;19.962;2024-02-21T04:33:06;98960.63;;;9.91;79.21
73171;BME280;61381;50.118;19.962;2024-02-21T04:38:07;98967.28;;;10.20;77.65
73171;BME280;61381;50.118;19.962;2024-02-21T04:43:09;98961.38;;;9.51;79.40
73171;BME280;61381;50.118;19.962;2024-02-21T04:48:10;98964.06;;;9.40;79.84
73171;BME280;61381;50.118;19.962;2024-02-21T04:53:10;98962.31;;;9.03;82.54
73171;BME280;61381;50.118;19.962;2024-02-21T04:58:13;98978.47;;;9.39;81.30
73171;BME280;61381;50.118;19.962;2024-02-21T05:03:13;98979.59;;;9.59;80.24
73171;BME280;61381;50.118;19.962;2024-02-21T05:08:14;98971.03;;;9.52;81.12
73171;BME280;61381;50.118;19.962;2024-02-21T05:13:16;98966.47;;;9.52;81.36
73171;BME280;61381;50.118;19.962;2024-02-21T05:18:17;98961.34;;;9.25;82.77
73171;BME280;61381;50.118;19.962;2024-02-21T05:23:18;98964.34;;;9.90;79.40
73171;BME280;61381;50.118;19.962;2024-02-21T05:28:20;98967.53;;;9.56;81.03
73171;BME280;61381;50.118;19.962;2024-02-21T05:33:21;98980.13;;;9.81;79.76
73171;BME280;61381;50.118;19.962;2024-02-21T05:38:22;98978.78;;;9.74;79.82
73171;BME280;61381;50.118;19.962;2024-02-21T05:43:24;98979.34;;;9.96;80.45
73171;BME280;61381;50.118;19.962;2024-02-21T05:48:25;98980.41;;;9.70;80.32
73171;BME280;61381;50.118;19.962;2024-02-21T05:53:25;98963.56;;;9.95;79.58
73171;BME280;61381;50.118;19.962;2024-02-21T05:58:27;98959.25;;;10.40;79.32
73171;BME280;61381;50.118;19.962;2024-02-21T06:03:29;98967.00;;;10.47;78.60
73171;BME280;61381;50.118;19.962;2024-02-21T06:08:29;98957.94;;;9.91;79.88
73171;BME280;61381;50.118;19.962;2024-02-21T06:13:31;98961.56;;;10.83;76.22
73171;BME280;61381;50.118;19.962;2024-02-21T06:18:33;98961.34;;;10.69;77.17
73171;BME280;61381;50.118;19.962;2024-02-21T06:23:36;98963.34;;;10.98;76.42
73171;BME280;61381;50.118;19.962;2024-02-21T06:28:39;98953.47;;;10.88;77.67
73171;BME280;61381;50.118;19.962;2024-02-21T06:33:40;98962.63;;;11.37;74.87
73171;BME280;61381;50.118;19.962;2024-02-21T06:38:41;98954.78;;;10.96;76.49
73171;BME280;61381;50.118;19.962;2024-02-21T06:43:43;98962.75;;;11.61;75.14
73171;BME280;61381;50.118;19.962;2024-02-21T06:48:44;98968.28;;;11.75;73.27
73171;BME280;61381;50.118;19.962;2024-02-21T06:53:45;98968.31;;;11.30;74.72
73171;BME280;61381;50.118;19.962;2024-02-21T06:58:47;98960.13;;;11.01;75.73
73171;BME280;61381;50.118;19.962;2024-02-21T07:03:48;98946.41;;;10.11;79.82
73171;BME280;61381;50.118;19.962;2024-02-21T07:08:49;98964.31;;;11.62;73.38
73171;BME280;61381;50.118;19.962;2024-02-21T07:13:52;98967.16;;;11.81;72.83
73171;BME280;61381;50.118;19.962;2024-02-21T07:18:53;98966.22;;;11.62;72.58
73171;BME280;61381;50.118;19.962;2024-02-21T07:23:54;98966.03;;;11.87;71.66
73171;BME280;61381;50.118;19.962;2024-02-21T07:28:56;98959.09;;;11.81;72.84
73171;BME280;61381;50.118;19.962;2024-02-21T07:33:57;98955.94;;;11.74;71.07
73171;BME280;61381;50.118;19.962;2024-02-21T07:38:58;98943.88;;;12.06;68.59
73171;BME280;61381;50.118;19.962;2024-02-21T07:44:00;98943.03;;;12.10;69.99
73171;BME280;61381;50.118;19.962;2024-02-21T07:49:01;98942.00;;;11.72;71.33
73171;BME280;61381;50.118;19.962;2024-02-21T07:54:02;98932.25;;;11.81;69.99
73171;BME280;61381;50.118;19.962;2024-02-21T07:59:04;98924.50;;;11.80;70.84
73171;BME280;61381;50.118;19.962;2024-02-21T08:04:05;98931.97;;;11.83;69.31
73171;BME280;61381;50.118;19.962;2024-02-21T08:09:06;98930.06;;;12.71;67.09
73171;BME280;61381;50.118;19.962;2024-02-21T08:14:08;98929.81;;;13.11;64.78
73171;BME280;61381;50.118;19.962;2024-02-21T08:19:11;98931.19;;;12.41;66.13
73171;BME280;61381;50.118;19.962;2024-02-21T08:24:12;98923.25;;;12.55;65.95
73171;BME280;61381;50.118;19.962;2024-02-21T08:29:14;98919.25;;;12.95;65.79
73171;BME280;61381;50.118;19.962;2024-02-21T08:34:15;98911.28;;;12.66;64.73
73171;BME280;61381;50.118;19.962;2024-02-21T08:39:16;98913.38;;;13.12;63.87
73171;BME280;61381;50.118;19.962;2024-02-21T08:44:18;98903.03;;;12.81;64.38
73171;BME280;61381;50.118;19.962;2024-02-21T08:49:19;98910.91;;;13.16;65.72
73171;BME280;61381;50.118;19.962;2024-02-21T08:54:20;98897.81;;;13.28;64.27
73171;BME280;61381;50.118;19.962;2024-02-21T08:59:22;98891.00;;;13.17;60.98
73171;BME280;61381;50.118;19.962;2024-02-21T09:04:23;98891.78;;;13.17;61.04
73171;BME280;61381;50.118;19.962;2024-02-21T09:09:23;98889.06;;;13.42;61.47
73171;BME280;61381;50.118;19.962;2024-02-21T09:14:26;98881.31;;;12.78;62.16
73171;BME280;61381;50.118;19.962;2024-02-21T09:19:26;98882.59;;;12.37;63.54
73171;BME280;61381;50.118;19.962;2024-02-21T09:24:27;98885.41;;;12.51;64.12
73171;BME280;61381;50.118;19.962;2024-02-21T09:29:29;98890.69;;;12.80;64.62
73171;BME280;61381;50.118;19.962;2024-02-21T09:34:30;98888.63;;;13.34;61.82
73171;BME280;61381;50.118;19.962;2024-02-21T09:39:31;98906.47;;;13.96;58.45
73171;BME280;61381;50.118;19.962;2024-02-21T09:44:36;98893.25;;;13.48;59.32
73171;BME280;61381;50.118;19.962;2024-02-21T09:49:39;98890.25;;;13.82;59.42
73171;BME280;61381;50.118;19.962;2024-02-21T09:54:41;98891.03;;;13.69;59.17
73171;BME280;61381;50.118;19.962;2024-02-21T09:59:44;98885.03;;;14.05;58.78
73171;BME280;61381;50.118;19.962;2024-02-21T10:04:45;98889.25;;;14.67;57.25
73171;BME280;61381;50.118;19.962;2024-02-21T10:09:46;98873.25;;;14.01;58.92
73171;BME280;61381;50.118;19.962;2024-02-21T10:14:48;98867.19;;;14.37;57.49
73171;BME280;61381;50.118;19.962;2024-02-21T10:19:49;98880.34;;;14.11;56.77
73171;BME280;61381;50.118;19.962;2024-02-21T10:24:49;98865.75;;;13.98;57.89
73171;BME280;61381;50.118;19.962;2024-02-21T10:29:52;98863.13;;;14.67;55.73
73171;BME280;61381;50.118;19.962;2024-02-21T10:35:00;98859.06;;;13.29;58.04
73171;BME280;61381;50.118;19.962;2024-02-21T10:40:03;98851.19;;;13.85;57.38
73171;BME280;61381;50.118;19.962;2024-02-21T10:45:07;98847.72;;;14.68;55.10
73171;BME280;61381;50.118;19.962;2024-02-21T10:50:12;98839.78;;;14.85;54.55
73171;BME280;61381;50.118;19.962;2024-02-21T10:55:19;98837.84;;;14.63;54.14
73171;BME280;61381;50.118;19.962;2024-02-21T11:00:22;98834.47;;;14.94;53.81
73171;BME280;61381;50.118;19.962;2024-02-21T11:05:23;98832.03;;;15.51;51.08
73171;BME280;61381;50.118;19.962;2024-02-21T11:10:26;98826.47;;;16.02;51.63
73171;BME280;61381;50.118;19.962;2024-02-21T11:15:28;98817.78;;;15.82;51.10
73171;BME280;61381;50.118;19.962;2024-02-21T11:20:33;98806.38;;;15.40;51.77
73171;BME280;61381;50.118;19.962;2024-02-21T11:25:34;98798.19;;;14.63;54.88
73171;BME280;61381;50.118;19.962;2024-02-21T11:30:37;98781.66;;;14.79;54.30
73171;BME280;61381;50.118;19.962;2024-02-21T11:35:37;98788.09;;;14.55;53.56
73171;BME280;61381;50.118;19.962;2024-02-21T11:40:38;98783.06;;;14.12;54.73
73171;BME280;61381;50.118;19.962;2024-02-21T11:45:41;98781.66;;;14.79;54.74
73171;BME280;61381;50.118;19.962;2024-02-21T11:50:42;98767.25;;;15.51;52.32
73171;BME280;61381;50.118;19.962;2024-02-21T11:55:43;98764.72;;;15.01;53.68
73171;BME280;61381;50.118;19.962;2024-02-21T12:00:45;98747.13;;;14.31;55.04
73171;BME280;61381;50.118;19.962;2024-02-21T12:05:46;98745.38;;;14.49;53.74
73171;BME280;61381;50.118;19.962;2024-02-21T12:10:47;98757.53;;;14.96;52.64
73171;BME280;61381;50.118;19.962;2024-02-21T12:15:49;98746.16;;;14.63;54.04
73171;BME280;61381;50.118;19.962;2024-02-21T12:20:50;98740.13;;;14.30;55.93
73171;BME280;61381;50.118;19.962;2024-02-21T12:25:51;98746.06;;;15.13;54.25
73171;BME280;61381;50.118;19.962;2024-02-21T12:30:53;98750.09;;;15.02;52.99
73171;BME280;61381;50.118;19.962;2024-02-21T12:35:55;98743.00;;;15.69;50.65
73171;BME280;61381;50.118;19.962;2024-02-21T12:40:56;98738.84;;;15.63;50.63
73171;BME280;61381;50.118;19.962;2024-02-21T12:45:59;98736.69;;;15.42;50.45
73171;BME280;61381;50.118;19.962;2024-02-21T12:50:59;98732.50;;;15.67;49.65
73171;BME280;61381;50.118;19.962;2024-02-21T12:56:00;98727.16;;;15.13;49.58
73171;BME280;61381;50.118;19.962;2024-02-21T13:01:03;98727.03;;;14.96;50.32
73171;BME280;61381;50.118;19.962;2024-02-21T13:06:04;98716.56;;;14.72;50.60
73171;BME280;61381;50.118;19.962;2024-02-21T13:11:05;98708.03;;;14.42;52.51
73171;BME280;61381;50.118;19.962;2024-02-21T13:16:08;98707.69;;;14.57;53.50
73171;BME280;61381;50.118;19.962;2024-02-21T13:21:09;98702.84;;;14.09;54.26
73171;BME280;61381;50.118;19.962;2024-02-21T13:26:10;98707.31;;;14.64;54.29
73171;BME280;61381;50.118;19.962;2024-02-21T13:31:12;98699.16;;;14.05;55.81
73171;BME280;61381;50.118;19.962;2024-02-21T13:36:13;98683.81;;;13.50;58.73
73171;BME280;61381;50.118;19.962;2024-02-21T13:41:14;98684.22;;;13.43;59.06
73171;BME280;61381;50.118;19.962;2024-02-21T13:46:16;98672.25;;;13.63;60.32
73171;BME280;61381;50.118;19.962;2024-02-21T13:51:17;98669.56;;;13.77;59.64
73171;BME280;61381;50.118;19.962;2024-02-21T13:56:18;98671.38;;;14.18;59.61
73171;BME280;61381;50.118;19.962;2024-02-21T14:01:20;98670.03;;;13.79;59.80
73171;BME280;61381;50.118;19.962;2024-02-21T14:06:21;98656.19;;;13.72;59.31
73171;BME280;61381;50.118;19.962;2024-02-21T14:11:22;98653.50;;;13.58;59.50
73171;BME280;61381;50.118;19.962;2024-02-21T14:16:25;98659.28;;;13.65;58.91
73171;BME280;61381;50.118;19.962;2024-02-21T14:21:26;98658.28;;;12.87;61.02
73171;BME280;61381;50.118;19.962;2024-02-21T14:26:27;98651.19;;;12.77;63.18
73171;BME280;61381;50.118;19.962;2024-02-21T14:31:29;98652.31;;;12.90;63.26
73171;BME280;61381;50.118;19.962;2024-02-21T14:36:31;98651.03;;;12.87;63.72
73171;BME280;61381;50.118;19.962;2024-02-21T14:41:32;98641.53;;;12.76;66.63
73171;BME280;61381;50.118;19.962;2024-02-21T14:46:34;98633.13;;;13.10;67.95
73171;BME280;61381;50.118;19.962;2024-02-21T14:51:35;98625.00;;;12.69;69.73
73171;BME280;61381;50.118;19.962;2024-02-21T14:56:36;98619.97;;;12.95;70.06
73171;BME280;61381;50.118;19.962;2024-02-21T15:01:38;98606.53;;;13.09;71.56
73171;BME280;61381;50.118;19.962;2024-02-21T15:06:39;98601.16;;;13.09;71.07
73171;BME280;61381;50.118;19.962;2024-02-21T15:11:40;98603.81;;;12.81;72.43
73171;BME280;61381;50.118;19.962;2024-02-21T15:16:42;98598.44;;;12.81;72.10
73171;BME280;61381;50.118;19.962;2024-02-21T15:21:43;98602.28;;;13.22;71.11
73171;BME280;61381;50.118;19.962;2024-02-21T15:26:44;98594.16;;;12.94;71.77
73171;BME280;61381;50.118;19.962;2024-02-21T15:31:46;98585.31;;;13.07;71.62
73171;BME280;61381;50.118;19.962;2024-02-21T15:36:47;98566.16;;;12.81;72.15
73171;BME280;61381;50.118;19.962;2024-02-21T15:41:48;98566.59;;;12.88;70.73
73171;BME280;61381;50.118;19.962;2024-02-21T15:46:50;98562.41;;;12.82;72.74
73171;BME280;61381;50.118;19.962;2024-02-21T15:51:51;98563.03;;;12.60;72.88
73171;BME280;61381;50.118;19.962;2024-02-21T15:56:52;98569.09;;;12.52;73.86
73171;BME280;61381;50.118;19.962;2024-02-21T16:01:54;98568.72;;;12.58;73.74
73171;BME280;61381;50.118;19.962;2024-02-21T16:06:55;98562.06;;;12.56;73.76
73171;BME280;61381;50.118;19.962;2024-02-21T16:11:56;98573.41;;;12.34;74.63
73171;BME280;61381;50.118;19.962;2024-02-21T16:16:58;98562.97;;;12.32;75.29
73171;BME280;61381;50.118;19.962;2024-02-21T16:21:59;98556.13;;;12.40;73.91
73171;BME280;61381;50.118;19.962;2024-02-21T16:27:00;98541.88;;;12.25;73.65
73171;BME280;61381;50.118;19.962;2024-02-21T16:32:02;98538.22;;;12.49;73.94
73171;BME280;61381;50.118;19.962;2024-02-21T16:37:03;98540.06;;;12.21;74.86
73171;BME280;61381;50.118;19.962;2024-02-21T16:42:04;98522.78;;;11.70;77.80
73171;BME280;61381;50.118;19.962;2024-02-21T16:47:07;98508.78;;;11.73;77.88
73171;BME280;61381;50.118;19.962;2024-02-21T16:52:07;98512.81;;;11.56;78.03
73171;BME280;61381;50.118;19.962;2024-02-21T16:57:08;98521.44;;;11.53;77.51
73171;BME280;61381;50.118;19.962;2024-02-21T17:02:10;98514.25;;;11.68;76.57
73171;BME280;61381;50.118;19.962;2024-02-21T17:07:11;98508.72;;;11.40;76.74
73171;BME280;61381;50.118;19.962;2024-02-21T17:12:12;98510.03;;;11.81;74.52
73171;BME280;61381;50.118;19.962;2024-02-21T17:17:14;98513.00;;;11.79;73.52
73171;BME280;61381;50.118;19.962;2024-02-21T17:22:16;98506.19;;;11.87;72.66
73171;BME280;61381;50.118;19.962;2024-02-21T17:27:17;98502.56;;;11.77;72.99
73171;BME280;61381;50.118;19.962;2024-02-21T17:32:20;98493.22;;;11.37;74.12
73171;BME280;61381;50.118;19.962;2024-02-21T17:37:20;98487.66;;;11.33;73.16
73171;BME280;61381;50.118;19.962;2024-02-21T17:42:21;98482.41;;;11.23;73.34
73171;BME280;61381;50.118;19.962;2024-02-21T17:47:24;98486.53;;;11.34;72.71
73171;BME280;61381;50.118;19.962;2024-02-21T17:52:24;98478.41;;;11.01;73.28
73171;BME280;61381;50.118;19.962;2024-02-21T17:57:25;98478.16;;;11.41;71.27
73171;BME280;61381;50.118;19.962;2024-02-21T18:02:27;98468.19;;;11.60;70.10
73171;BME280;61381;50.118;19.962;2024-02-21T18:07:28;98456.03;;;11.49;69.64
73171;BME280;61381;50.118;19.962;2024-02-21T18:12:29;98458.00;;;11.24;70.19
73171;BME280;61381;50.118;19.962;2024-02-21T18:17:31;98461.00;;;11.18;71.03
73171;BME280;61381;50.118;19.962;2024-02-21T18:22:32;98454.19;;;10.63;73.52
73171;BME280;61381;50.118;19.962;2024-02-21T18:27:33;98462.66;;;10.95;72.08
73171;BME280;61381;50.118;19.962;2024-02-21T18:32:35;98456.22;;;10.47;73.79
73171;BME280;61381;50.118;19.962;2024-02-21T18:37:36;98443.66;;;10.18;74.43
73171;BME280;61381;50.118;19.962;2024-02-21T18:42:37;98441.13;;;10.27;75.80
73171;BME280;61381;50.118;19.962;2024-02-21T18:47:39;98441.19;;;9.93;75.99
73171;BME280;61381;50.118;19.962;2024-02-21T18:52:40;98428.47;;;9.40;78.79
73171;BME280;61381;50.118;19.962;2024-02-21T18:57:41;98426.22;;;9.57;78.58
73171;BME280;61381;50.118;19.962;2024-02-21T19:02:43;98424.56;;;9.96;76.43
73171;BME280;61381;50.118;19.962;2024-02-21T19:07:44;98400.69;;;9.41;78.05
73171;BME280;61381;50.118;19.962;2024-02-21T19:12:44;98399.84;;;10.09;74.34
73171;BME280;61381;50.118;19.962;2024-02-21T19:17:47;98388.47;;;9.64;76.93
73171;BME280;61381;50.118;19.962;2024-02-21T19:22:47;98385.31;;;9.86;75.70
73171;BME280;61381;50.118;19.962;2024-02-21T19:27:48;98386.66;;;10.42;73.14
73171;BME280;61381;50.118;19.962;2024-02-21T19:32:50;98381.81;;;9.91;74.75
73171;BME280;61381;50.118;19.962;2024-02-21T19:37:51;98379.94;;;9.91;74.49
73171;BME280;61381;50.118;19.962;2024-02-21T19:42:52;98372.22;;;10.14;73.25
73171;BME280;61381;50.118;19.962;2024-02-21T19:47:54;98370.50;;;9.99;73.46
73171;BME280;61381;50.118;19.962;2024-02-21T19:52:55;98362.34;;;9.80;73.82
73171;BME280;61381;50.118;19.962;2024-02-21T19:57:56;98360.69;;;9.25;75.81
73171;BME280;61381;50.118;19.962;2024-02-21T20:08:25;98353.66;;;9.35;76.42
73171;BME280;61381;50.118;19.962;2024-02-21T20:13:26;98346.00;;;9.23;76.62
73171;BME280;61381;50.118;19.962;2024-02-21T20:18:27;98346.31;;;9.16;76.18
73171;BME280;61381;50.118;19.962;2024-02-21T20:23:29;98339.00;;;8.32;79.78
73171;BME280;61381;50.118;19.962;2024-02-21T20:28:30;98354.97;;;8.37;80.32
73171;BME280;61381;50.118;19.962;2024-02-21T20:33:31;98346.81;;;8.79;78.76
73171;BME280;61381;50.118;19.962;2024-02-21T20:38:33;98344.31;;;8.98;78.57
73171;BME280;61381;50.118;19.962;2024-02-21T20:43:34;98334.00;;;8.75;80.20
73171;BME280;61381;50.118;19.962;2024-02-21T20:48:35;98331.84;;;8.83;78.36
73171;BME280;61381;50.118;19.962;2024-02-21T20:53:37;98314.25;;;8.77;78.49
73171;BME280;61381;50.118;19.962;2024-02-21T20:58:38;98312.16;;;8.68;79.00
73171;BME280;61381;50.118;19.962;2024-02-21T21:03:39;98305.72;;;8.74;77.40
73171;BME280;61381;50.118;19.962;2024-02-21T21:08:41;98302.03;;;8.65;78.49
73171;BME280;61381;50.118;19.962;2024-02-21T21:13:42;98299.66;;;8.59;79.15
73171;BME280;61381;50.118;19.962;2024-02-21T21:18:43;98299.41;;;8.55;79.58
73171;BME280;61381;50.118;19.962;2024-02-21T21:23:45;98290.91;;;8.92;78.52
73171;BME280;61381;50.118;19.962;2024-02-21T21:28:46;98291.09;;;8.62;78.37
73171;BME280;61381;50.118;19.962;2024-02-21T21:33:47;98292.66;;;8.73;78.18
73171;BME280;61381;50.118;19.962;2024-02-21T21:38:49;98283.81;;;8.78;79.50
73171;BME280;61381;50.118;19.962;2024-02-21T21:43:50;98267.06;;;8.62;78.29
73171;BME280;61381;50.118;19.962;2024-02-21T21:48:51;98272.50;;;8.41;79.93
73171;BME280;61381;50.118;19.962;2024-02-21T21:53:53;98260.50;;;8.44;80.70
73171;BME280;61381;50.118;19.962;2024-02-21T21:58:54;98252.56;;;8.23;81.59
73171;BME280;61381;50.118;19.962;2024-02-21T22:03:55;98253.56;;;9.17;78.94
73171;BME280;61381;50.118;19.962;2024-02-21T22:08:57;98254.59;;;8.86;79.58
73171;BME280;61381;50.118;19.962;2024-02-21T22:13:58;98243.66;;;8.43;80.17
73171;BME280;61381;50.118;19.962;2024-02-21T22:18:59;98238.78;;;8.61;80.53
73171;BME280;61381;50.118;19.962;2024-02-21T22:24:01;98230.28;;;8.93;78.35
73171;BME280;61381;50.118;19.962;2024-02-21T22:29:02;98241.53;;;9.49;74.54
73171;BME280;61381;50.118;19.962;2024-02-21T22:34:03;98224.00;;;8.73;75.55
73171;BME280;61381;50.118;19.962;2024-02-21T22:39:05;98211.00;;;8.62;75.64
73171;BME280;61381;50.118;19.962;2024-02-21T22:44:06;98210.66;;;8.29;78.24
73171;BME280;61381;50.118;19.962;2024-02-21T22:49:07;98187.69;;;8.28;77.66
73171;BME280;61381;50.118;19.962;2024-02-21T22:54:09;98184.78;;;8.24;76.49
73171;BME280;61381;50.118;19.962;2024-02-21T22:59:10;98176.06;;;8.58;75.12
73171;BME280;61381;50.118;19.962;2024-02-21T23:04:11;98168.25;;;8.22;75.40
73171;BME280;61381;50.118;19.962;2024-02-21T23:09:13;98171.78;;;7.57;79.47
73171;BME280;61381;50.118;19.962;2024-02-21T23:14:14;98154.19;;;7.51;81.77
73171;BME280;61381;50.118;19.962;2024-02-21T23:19:15;98147.91;;;7.86;78.91
73171;BME280;61381;50.118;19.962;2024-02-21T23:24:17;98154.03;;;7.92;77.08
73171;BME280;61381;50.118;19.962;2024-02-21T23:29:18;98135.03;;;7.49;78.21
73171;BME280;61381;50.118;19.962;2024-02-21T23:34:19;98126.25;;;7.43;77.52
73171;BME280;61381;50.118;19.962;2024-02-21T23:39:21;98134.81;;;7.35;77.99
73171;BME280;61381;50.118;19.962;2024-02-21T23:44:22;98127.66;;;7.15;78.10
73171;BME280;61381;50.118;19.962;2024-02-21T23:49:23;98123.63;;;7.28;76.97
73171;BME280;61381;50.118;19.962;2024-02-21T23:54:25;98108.47;;;7.18;79.94
73171;BME280;61381;50.118;19.962;2024-02-21T23:59:26;98096.91;;;7.48;76.50
